createdAt,value
2019-04-07T00:02:05.320Z,61.90
2019-04-07T00:04:34.890Z,60.17
2019-04-07T00:07:04.620Z,59.13
2019-04-07T00:09:34.396Z,62.20
2019-04-07T00:12:04.322Z,59.85
2019-04-07T00:14:33.897Z,62.78
2019-04-07T00:17:03.483Z,64.53
2019-04-07T00:19:33.045Z,64.00
2019-04-07T00:22:02.561Z,61.10
2019-04-07T00:24:32.371Z,61.02
2019-04-07T00:27:03.641Z,63.35
2019-04-07T00:29:34.405Z,62.93
2019-04-07T00:32:03.993Z,64.12
2019-04-07T00:34:33.575Z,67.03
2019-04-07T00:37:03.168Z,66.15
2019-04-07T00:39:32.748Z,68.30
2019-04-07T00:42:03.845Z,71.02
2019-04-07T00:44:33.539Z,71.40
2019-04-07T00:47:03.360Z,64.75
2019-04-07T00:49:32.942Z,62.38
2019-04-07T00:52:04.206Z,64.45
2019-04-07T00:54:33.772Z,65.80
2019-04-07T00:57:04.643Z,67.03
2019-04-07T00:59:34.162Z,63.33
2019-04-07T01:02:05.032Z,63.85
2019-04-07T01:04:35.245Z,65.32
2019-04-07T01:07:04.997Z,61.75
2019-04-07T01:09:35.247Z,63.40
2019-04-07T01:12:05.047Z,62.80
2019-04-07T01:14:34.649Z,61.60
2019-04-07T01:17:04.464Z,62.93
2019-04-07T01:19:34.430Z,63.52
2019-04-07T01:22:05.468Z,62.48
2019-04-07T01:24:35.244Z,66.25
2019-04-07T01:27:05.093Z,61.88
2019-04-07T01:29:35.338Z,60.05
2019-04-07T01:32:04.995Z,61.53
2019-04-07T01:34:35.034Z,58.58
2019-04-07T01:37:04.657Z,59.13
2019-04-07T01:39:34.875Z,62.40
2019-04-07T01:42:06.579Z,62.03
2019-04-07T01:44:37.945Z,58.48
2019-04-07T01:47:12.344Z,62.75
2019-04-07T01:49:44.416Z,61.40
2019-04-07T01:52:25.316Z,61.83
2019-04-07T01:55:12.940Z,56.18
2019-04-07T01:57:44.327Z,56.73
2019-04-07T02:00:19.002Z,59.05
2019-04-07T02:02:52.928Z,58.98
2019-04-07T02:05:39.195Z,57.43
2019-04-07T02:08:25.476Z,57.08
2019-04-07T02:10:57.147Z,59.67
2019-04-07T02:13:35.021Z,55.03
2019-04-07T02:16:06.582Z,59.18
2019-04-07T02:18:44.233Z,60.45
2019-04-07T02:21:15.740Z,57.75
2019-04-07T02:24:05.013Z,58.73
2019-04-07T02:26:39.052Z,58.08
2019-04-07T02:29:10.485Z,58.13
2019-04-07T02:31:58.474Z,55.83
2019-04-07T02:34:32.576Z,55.60
2019-04-07T02:37:04.690Z,53.60
2019-04-07T02:39:48.693Z,52.83
2019-04-07T02:42:30.321Z,55.92
2019-04-07T02:45:04.242Z,56.58
2019-04-07T02:47:44.666Z,49.23
2019-04-07T02:50:33.264Z,54.73
2019-04-07T02:53:07.677Z,52.27
2019-04-07T02:55:45.222Z,55.28
2019-04-07T02:58:19.194Z,53.23
2019-04-07T03:01:07.015Z,55.30
2019-04-07T03:03:38.495Z,55.70
2019-04-07T03:06:35.772Z,53.40
2019-04-07T03:08:59.319Z,58.68
2019-04-07T03:11:37.338Z,51.53
2019-04-07T03:14:17.887Z,57.60
2019-04-07T03:17:06.605Z,52.15
2019-04-07T03:19:38.073Z,48.45
2019-04-07T03:22:09.277Z,49.20
2019-04-07T03:24:49.722Z,51.68
2019-04-07T03:27:38.077Z,49.90
2019-04-07T03:30:18.027Z,50.33
2019-04-07T03:32:58.055Z,49.27
2019-04-07T03:35:32.450Z,49.98
2019-04-07T03:38:05.185Z,54.15
2019-04-07T03:40:46.306Z,51.70
2019-04-07T03:43:32.893Z,53.10
2019-04-07T03:46:08.059Z,51.95
2019-04-07T03:48:45.891Z,53.58
2019-04-07T03:51:33.499Z,49.03
2019-04-07T03:54:05.062Z,58.10
2019-04-07T03:56:45.500Z,52.78
2019-04-07T03:59:20.149Z,56.68
2019-04-07T04:02:00.389Z,56.37
2019-04-07T04:04:32.302Z,58.00
2019-04-07T04:07:17.814Z,59.03
2019-04-07T04:09:48.825Z,59.20
2019-04-07T04:15:00.563Z,57.48
2019-04-07T04:17:31.181Z,58.60
2019-04-07T04:20:00.813Z,62.25
2019-04-07T04:22:30.792Z,59.35
2019-04-07T04:25:01.012Z,57.95
2019-04-07T04:27:31.309Z,56.35
2019-04-07T04:30:01.063Z,60.35
2019-04-07T04:32:31.170Z,57.75
2019-04-07T04:35:01.056Z,59.80
2019-04-07T04:37:39.893Z,55.08
2019-04-07T04:40:02.137Z,59.73
2019-04-07T04:42:31.717Z,56.68
2019-04-07T04:45:02.383Z,55.52
2019-04-07T04:47:32.861Z,60.52
2019-04-07T04:50:02.604Z,65.87
2019-04-07T04:52:32.402Z,59.48
2019-04-07T04:55:02.163Z,58.10
2019-04-07T04:57:32.095Z,68.28
2019-04-07T05:00:02.288Z,77.40
2019-04-07T05:02:32.592Z,75.90
2019-04-07T05:05:02.623Z,77.35
2019-04-07T05:07:32.407Z,79.50
2019-04-07T05:10:01.950Z,80.00
2019-04-07T05:12:31.532Z,77.95
2019-04-07T05:15:01.749Z,75.92
2019-04-07T05:17:32.328Z,76.77
2019-04-07T05:20:02.640Z,83.75
2019-04-07T05:22:32.443Z,79.35
2019-04-07T05:25:02.401Z,74.22
2019-04-07T05:27:32.687Z,78.52
2019-04-07T05:30:02.569Z,70.35
2019-04-07T05:32:32.336Z,74.03
2019-04-07T05:35:02.346Z,75.87
2019-04-07T05:37:32.884Z,82.62
2019-04-07T05:40:03.515Z,79.67
2019-04-07T05:42:34.289Z,84.03
2019-04-07T05:45:06.574Z,81.22
2019-04-07T05:47:36.504Z,79.65
2019-04-07T05:50:07.382Z,81.02
2019-04-07T05:52:39.820Z,81.55
2019-04-07T05:55:08.937Z,79.55
2019-04-07T05:57:38.834Z,82.67
2019-04-07T06:00:15.659Z,118.75
2019-04-07T06:02:45.576Z,108.12
2019-04-07T06:05:16.216Z,111.90
2019-04-07T06:07:46.997Z,125.27
2019-04-07T06:10:18.184Z,124.72
2019-04-07T06:12:48.289Z,121.57
2019-04-07T06:15:21.974Z,122.98
2019-04-07T06:17:50.155Z,127.02
2019-04-07T06:20:19.802Z,131.20
2019-04-07T06:22:52.792Z,124.67
2019-04-07T06:25:20.978Z,132.40
2019-04-07T06:27:51.792Z,126.00
2019-04-07T06:30:23.312Z,131.90
2019-04-07T06:32:53.798Z,127.38
2019-04-07T06:35:23.641Z,131.95
2019-04-07T06:37:53.243Z,137.80
2019-04-07T06:40:23.118Z,135.63
2019-04-07T06:42:53.355Z,139.65
2019-04-07T06:45:24.646Z,144.37
2019-04-07T06:47:56.291Z,133.45
2019-04-07T06:50:31.178Z,131.03
2019-04-07T06:53:03.449Z,129.35
2019-04-07T06:55:51.246Z,138.47
2019-04-07T06:58:25.493Z,142.05
2019-04-07T07:01:02.343Z,136.57
2019-04-07T07:03:51.404Z,140.57
2019-04-07T07:06:31.910Z,134.35
2019-04-07T07:09:15.719Z,140.07
2019-04-07T07:12:03.986Z,137.47
2019-04-07T07:14:43.340Z,142.75
2019-04-07T07:17:10.931Z,146.77
2019-04-07T07:19:42.319Z,133.63
2019-04-07T07:22:15.549Z,139.40
2019-04-07T07:24:46.640Z,133.93
2019-04-07T07:27:15.445Z,139.05
2019-04-07T07:29:45.828Z,138.62
2019-04-07T07:32:16.965Z,135.18
2019-04-07T07:34:46.724Z,139.92
2019-04-07T07:37:16.897Z,134.40
2019-04-07T07:39:47.093Z,130.35
2019-04-07T07:42:19.099Z,135.95
2019-04-07T07:44:48.334Z,139.80
2019-04-07T07:47:20.837Z,131.05
2019-04-07T07:49:49.774Z,134.45
2019-04-07T07:52:21.569Z,128.78
2019-04-07T07:54:50.844Z,133.82
2019-04-07T07:57:23.505Z,127.62
2019-04-07T07:59:52.043Z,130.37
2019-04-07T08:02:22.139Z,124.50
2019-04-07T08:04:52.818Z,131.97
2019-04-07T08:07:23.597Z,131.22
2019-04-07T08:09:54.350Z,129.82
2019-04-07T08:12:25.717Z,130.20
2019-04-07T08:14:57.182Z,139.35
2019-04-07T08:17:27.094Z,136.25
2019-04-07T08:19:57.782Z,125.38
2019-04-07T08:22:33.781Z,129.23
2019-04-07T08:24:58.921Z,127.40
2019-04-07T08:27:31.173Z,131.72
2019-04-07T08:29:59.716Z,125.90
2019-04-07T08:32:31.999Z,124.80
2019-04-07T08:35:03.253Z,131.97
2019-04-07T08:37:32.007Z,125.12
2019-04-07T08:40:04.430Z,131.85
2019-04-07T08:42:33.990Z,136.57
2019-04-07T08:45:05.705Z,123.25
2019-04-07T08:47:35.670Z,125.05
2019-04-07T08:50:08.450Z,122.05
2019-04-07T08:52:40.597Z,126.18
2019-04-07T08:55:10.306Z,122.20
2019-04-07T08:57:40.121Z,123.72
2019-04-07T09:00:14.954Z,128.82
2019-04-07T09:02:44.711Z,126.87
2019-04-07T09:05:14.764Z,121.33
2019-04-07T09:07:44.701Z,131.80
2019-04-07T09:10:18.324Z,136.75
2019-04-07T09:12:47.270Z,128.45
2019-04-07T09:15:21.201Z,126.55
2019-04-07T09:17:55.537Z,129.10
2019-04-07T09:20:36.213Z,126.38
2019-04-07T09:23:11.284Z,118.65
2019-04-07T09:25:43.665Z,120.25
2019-04-07T09:28:15.133Z,126.30
2019-04-07T09:30:47.144Z,120.95
2019-04-07T09:33:24.245Z,126.38
2019-04-07T09:36:12.228Z,123.18
2019-04-07T09:39:01.856Z,122.50
2019-04-07T09:41:46.725Z,123.00
2019-04-07T09:44:27.763Z,121.55
2019-04-07T09:46:59.600Z,115.65
2019-04-07T09:49:41.369Z,112.00
2019-04-07T09:52:16.674Z,119.80
2019-04-07T09:54:51.723Z,107.70
2019-04-07T09:57:21.243Z,113.40
2019-04-07T10:00:08.515Z,110.25
2019-04-07T10:02:40.039Z,107.95
2019-04-07T10:05:30.857Z,108.90
2019-04-07T10:08:13.615Z,110.32
2019-04-07T10:10:49.993Z,102.50
2019-04-07T10:13:30.701Z,112.25
2019-04-07T10:16:18.590Z,105.67
2019-04-07T10:19:06.450Z,111.20
2019-04-07T10:21:49.839Z,108.15
2019-04-07T10:24:37.284Z,104.63
2019-04-07T10:27:14.628Z,101.58
2019-04-07T10:29:59.203Z,102.40
2019-04-07T10:35:29.573Z,80.53
2019-04-07T10:38:16.989Z,80.97
2019-04-07T10:40:49.096Z,83.65
2019-04-07T10:43:32.328Z,79.77
2019-04-07T10:46:06.737Z,78.55
2019-04-07T10:48:38.227Z,82.55
2019-04-07T10:51:21.957Z,77.37
2019-04-07T10:53:56.209Z,75.60
2019-04-07T10:56:27.801Z,86.90
2019-04-07T10:58:59.386Z,83.82
2019-04-07T11:01:33.648Z,79.40
2019-04-07T11:04:20.207Z,80.20
2019-04-07T11:06:51.757Z,78.42
2019-04-07T11:09:35.413Z,69.50
2019-04-07T11:12:06.999Z,72.82
2019-04-07T11:14:38.433Z,69.90
2019-04-07T11:17:21.581Z,75.85
2019-04-07T11:20:02.893Z,64.17
2019-04-07T11:22:50.616Z,70.60
2019-04-07T11:25:24.732Z,60.43
2019-04-07T11:27:55.968Z,59.93
2019-04-07T11:30:36.215Z,62.62
2019-04-07T11:33:13.398Z,62.78
2019-04-07T11:35:53.707Z,61.50
2019-04-07T11:38:41.406Z,59.18
2019-04-07T11:41:30.728Z,62.95
2019-04-07T11:44:05.339Z,56.05
2019-04-07T11:46:43.190Z,53.13
2019-04-07T11:49:21.420Z,48.52
2019-04-07T11:51:53.531Z,43.60
2019-04-07T11:54:41.572Z,47.67
2019-04-07T11:57:19.059Z,44.38
2019-04-07T11:59:54.018Z,49.45
2019-04-07T12:02:26.282Z,36.10
2019-04-07T12:05:04.294Z,39.70
2019-04-07T12:07:35.777Z,45.38
2019-04-07T12:10:25.797Z,47.27
2019-04-07T12:13:03.626Z,33.25
2019-04-07T12:15:51.201Z,33.23
2019-04-07T12:18:25.386Z,34.08
2019-04-07T12:21:01.123Z,28.85
2019-04-07T12:23:46.292Z,26.77
2019-04-07T12:26:20.723Z,24.95
2019-04-07T12:31:51.033Z,26.90
2019-04-07T12:34:23.380Z,26.95
2019-04-07T12:37:03.073Z,28.60
2019-04-07T12:39:35.002Z,32.60
2019-04-07T12:42:09.801Z,23.75
2019-04-07T12:44:41.762Z,25.08
2019-04-07T12:47:30.064Z,20.23
2019-04-07T12:50:20.688Z,17.37
2019-04-07T12:52:54.849Z,19.15
2019-04-07T12:55:26.406Z,17.23
2019-04-07T12:58:00.962Z,18.17
2019-04-07T13:00:52.390Z,20.70
2019-04-07T13:03:13.925Z,17.35
2019-04-07T13:05:49.673Z,21.68
2019-04-07T13:08:33.780Z,21.80
2019-04-07T13:14:04.366Z,19.25
2019-04-07T13:16:40.594Z,26.12
2019-04-07T13:19:29.815Z,27.87
2019-04-07T13:22:16.411Z,26.95
2019-04-07T13:24:51.038Z,26.87
2019-04-07T13:27:28.154Z,24.12
2019-04-07T13:30:14.332Z,31.27
2019-04-07T13:33:00.719Z,26.40
2019-04-07T13:35:30.281Z,23.65
2019-04-07T13:38:07.716Z,24.25
2019-04-07T13:40:46.987Z,27.48
2019-04-07T13:43:31.130Z,26.85
2019-04-07T13:46:18.891Z,22.82
2019-04-07T13:49:00.800Z,24.87
2019-04-07T13:51:47.182Z,21.00
2019-04-07T13:54:34.336Z,22.73
2019-04-07T13:57:06.566Z,22.27
2019-04-07T13:59:56.736Z,24.60
2019-04-07T14:02:30.404Z,21.60
2019-04-07T14:05:11.233Z,24.98
2019-04-07T14:07:58.989Z,23.12
2019-04-07T14:10:37.226Z,22.02
2019-04-07T14:13:25.653Z,17.45
2019-04-07T14:16:09.525Z,17.85
2019-04-07T14:18:56.989Z,16.10
2019-04-07T14:21:45.069Z,17.40
2019-04-07T14:24:23.760Z,17.48
2019-04-07T14:27:04.363Z,16.87
2019-04-07T14:29:39.380Z,16.75
2019-04-07T14:32:17.346Z,16.30
2019-04-07T14:34:48.766Z,17.10
2019-04-07T14:37:29.199Z,13.60
2019-04-07T14:40:01.002Z,18.07
2019-04-07T14:42:35.221Z,17.50
2019-04-07T14:45:14.530Z,14.20
2019-04-07T14:48:04.164Z,16.45
2019-04-07T14:50:40.718Z,13.58
2019-04-07T14:53:16.457Z,15.20
2019-04-07T14:55:53.193Z,15.18
2019-04-07T14:58:36.932Z,14.70
2019-04-07T15:01:11.216Z,14.70
2019-04-07T15:03:40.861Z,73.28
2019-04-07T15:06:10.900Z,75.10
2019-04-07T15:08:48.020Z,75.03
2019-04-07T15:11:19.554Z,75.17
2019-04-07T15:13:49.511Z,78.62
2019-04-07T15:16:19.661Z,70.80
2019-04-07T15:18:50.123Z,67.00
2019-04-07T15:21:19.984Z,63.65
2019-04-07T15:23:50.697Z,59.58
2019-04-07T15:26:22.044Z,61.60
2019-04-07T15:28:52.415Z,58.42
2019-04-07T15:31:23.104Z,54.53
2019-04-07T15:33:53.036Z,57.62
2019-04-07T15:36:23.224Z,54.85
2019-04-07T15:38:55.517Z,56.18
2019-04-07T15:41:25.379Z,53.17
2019-04-07T15:43:55.298Z,52.58
2019-04-07T15:46:25.664Z,51.35
2019-04-07T15:48:56.762Z,52.23
2019-04-07T15:51:26.585Z,56.13
2019-04-07T15:53:56.524Z,61.25
2019-04-07T15:56:27.069Z,68.57
2019-04-07T15:59:00.702Z,73.52
2019-04-07T16:01:28.043Z,64.25
2019-04-07T16:03:57.679Z,67.85
2019-04-07T16:06:27.930Z,63.13
2019-04-07T16:09:00.223Z,61.35
2019-04-07T16:11:30.470Z,61.08
2019-04-07T16:14:00.399Z,65.70
2019-04-07T16:16:30.758Z,57.35
2019-04-07T16:19:01.204Z,63.73
2019-04-07T16:21:31.146Z,60.30
2019-04-07T16:24:00.746Z,61.75
2019-04-07T16:26:31.968Z,66.60
2019-04-07T16:29:01.796Z,72.03
2019-04-07T16:31:32.201Z,75.45
2019-04-07T16:34:05.774Z,73.33
2019-04-07T16:36:35.095Z,78.13
2019-04-07T16:39:09.281Z,71.22
2019-04-07T16:41:40.362Z,78.02
2019-04-07T16:47:19.536Z,62.35
2019-04-07T16:49:46.702Z,64.25
2019-04-07T16:52:13.731Z,66.15
2019-04-07T16:54:44.579Z,64.12
2019-04-07T16:57:15.321Z,63.60
2019-04-07T16:59:44.950Z,57.95
2019-04-07T17:02:17.025Z,83.05
2019-04-07T17:04:45.991Z,98.82
2019-04-07T17:07:17.710Z,94.45
2019-04-07T17:09:46.819Z,86.72
2019-04-07T17:12:16.862Z,78.87
2019-04-07T17:14:47.070Z,74.65
2019-04-07T17:17:20.317Z,67.08
2019-04-07T17:19:47.868Z,64.25
2019-04-07T17:22:18.128Z,57.75
2019-04-07T17:24:48.018Z,45.08
2019-04-07T17:27:18.297Z,43.68
2019-04-07T17:29:52.540Z,38.63
2019-04-07T17:32:19.974Z,37.20
2019-04-07T17:34:49.781Z,47.67
2019-04-07T17:37:20.077Z,55.95
2019-04-07T17:39:51.589Z,67.10
2019-04-07T17:42:25.020Z,72.50
2019-04-07T17:44:54.065Z,81.22
2019-04-07T17:47:38.179Z,76.50
2019-04-07T17:50:10.846Z,83.45
2019-04-07T17:52:42.420Z,89.10
2019-04-07T17:55:30.414Z,93.95
2019-04-07T17:58:07.878Z,100.90
2019-04-07T18:00:53.266Z,106.72
2019-04-07T18:03:27.541Z,106.22
2019-04-07T18:06:02.441Z,111.03
2019-04-07T18:08:45.314Z,110.88
2019-04-07T18:11:18.279Z,106.80
2019-04-07T18:13:56.699Z,115.88
2019-04-07T18:16:40.775Z,111.92
2019-04-07T18:19:13.014Z,116.88
2019-04-07T18:21:53.884Z,119.30
2019-04-07T18:24:40.621Z,117.77
2019-04-07T18:27:17.143Z,118.70
2019-04-07T18:29:53.893Z,122.55
2019-04-07T18:32:35.173Z,118.77
2019-04-07T18:35:14.106Z,122.05
2019-04-07T18:37:48.446Z,123.70
2019-04-07T18:40:27.357Z,119.15
2019-04-07T18:43:02.160Z,122.72
2019-04-07T18:45:36.703Z,126.95
2019-04-07T18:48:27.478Z,145.82
2019-04-07T18:50:58.994Z,155.65
2019-04-07T18:53:30.750Z,152.05
2019-04-07T18:56:20.074Z,158.03
2019-04-07T18:58:59.577Z,151.07
2019-04-07T19:01:45.585Z,147.30
2019-04-07T19:04:23.801Z,154.50
2019-04-07T19:06:55.901Z,157.72
2019-04-07T19:09:39.542Z,162.03
2019-04-07T19:12:18.685Z,166.97
2019-04-07T19:15:03.771Z,238.12
2019-04-07T19:17:46.477Z,177.45
2019-04-07T19:20:20.497Z,176.45
2019-04-07T19:22:58.196Z,168.68
2019-04-07T19:25:33.361Z,170.25
2019-04-07T19:28:11.405Z,179.90
2019-04-07T19:30:45.372Z,174.55
2019-04-07T19:33:19.179Z,186.85
2019-04-07T19:35:51.869Z,179.90
2019-04-07T19:38:29.409Z,175.38
2019-04-07T19:41:04.671Z,185.88
2019-04-07T19:43:48.461Z,183.05
2019-04-07T19:46:34.725Z,175.87
2019-04-07T19:49:20.097Z,176.35
2019-04-07T19:52:05.786Z,176.78
2019-04-07T19:54:52.852Z,185.37
2019-04-07T19:57:24.449Z,191.68
2019-04-07T19:59:58.013Z,192.90
2019-04-07T20:02:35.979Z,196.82
2019-04-07T20:05:17.345Z,192.95
2019-04-07T20:08:04.133Z,195.12
2019-04-07T20:10:35.989Z,200.97
2019-04-07T20:13:22.229Z,201.32
2019-04-07T20:15:55.040Z,199.62
2019-04-07T20:18:30.024Z,202.53
2019-04-07T20:21:08.460Z,200.22
2019-04-07T20:23:40.036Z,206.30
2019-04-07T20:26:28.420Z,206.65
2019-04-07T20:29:17.151Z,212.17
2019-04-07T20:32:00.531Z,209.90
2019-04-07T20:34:50.429Z,208.38
2019-04-07T20:37:30.637Z,214.82
2019-04-07T20:40:03.518Z,218.00
2019-04-07T20:42:37.376Z,214.25
2019-04-07T20:45:14.187Z,213.90
2019-04-07T20:50:12.937Z,211.82
2019-04-07T20:53:10.176Z,209.80
2019-04-07T20:55:49.512Z,212.68
2019-04-07T20:58:25.404Z,208.30
2019-04-07T21:01:17.294Z,211.82
2019-04-07T21:06:50.538Z,208.15
2019-04-07T21:09:21.982Z,207.45
2019-04-07T21:11:58.879Z,217.37
2019-04-07T21:14:43.102Z,223.43
2019-04-07T21:17:17.538Z,222.85
2019-04-07T21:19:49.613Z,219.15
2019-04-07T21:22:21.013Z,221.30
2019-04-07T21:25:11.452Z,220.75
2019-04-07T21:28:00.107Z,233.00
2019-04-07T21:30:37.129Z,234.03
2019-04-07T21:33:08.960Z,237.32
2019-04-07T21:35:40.539Z,243.22
2019-04-07T21:38:16.169Z,246.50
2019-04-07T21:40:48.064Z,247.33
2019-04-07T21:43:24.324Z,246.32
2019-04-07T21:46:06.743Z,250.80
2019-04-07T21:48:54.025Z,255.40
2019-04-07T21:51:25.277Z,242.87
2019-04-07T21:54:00.122Z,258.85
2019-04-07T21:56:35.446Z,265.80
2019-04-07T21:59:07.497Z,263.40
2019-04-07T22:01:39.810Z,254.60
2019-04-07T22:04:18.902Z,249.92
2019-04-07T22:06:49.692Z,262.50
2019-04-07T22:09:21.031Z,256.73
2019-04-07T22:11:51.443Z,251.95
2019-04-07T22:14:21.226Z,262.02
2019-04-07T22:16:51.277Z,253.42
2019-04-07T22:19:20.974Z,263.15
2019-04-07T22:21:55.102Z,263.55
2019-04-07T22:24:22.037Z,250.53
2019-04-07T22:26:51.651Z,265.90
2019-04-07T22:29:21.250Z,260.95
2019-04-07T22:31:53.443Z,258.27
2019-04-07T22:34:23.309Z,265.07
2019-04-07T22:36:53.734Z,266.77
2019-04-07T22:39:27.514Z,254.53
2019-04-07T22:41:56.148Z,255.62
2019-04-07T22:44:26.558Z,244.93
2019-04-07T22:46:56.518Z,255.90
2019-04-07T22:49:30.823Z,249.88
2019-04-07T22:51:57.655Z,256.77
2019-04-07T22:54:30.701Z,253.12
2019-04-07T22:56:58.904Z,258.73
2019-04-07T22:59:28.446Z,258.27
2019-04-07T23:01:58.034Z,251.07
2019-04-07T23:04:27.939Z,252.87
2019-04-07T23:06:57.553Z,247.93
2019-04-07T23:09:27.245Z,248.05
2019-04-07T23:11:56.841Z,250.75
2019-04-07T23:14:27.489Z,250.87
2019-04-07T23:16:57.468Z,243.63
2019-04-07T23:19:27.107Z,255.72
2019-04-07T23:21:57.532Z,242.00
2019-04-07T23:24:27.138Z,239.15
2019-04-07T23:26:56.844Z,245.67
2019-04-07T23:29:26.445Z,242.57
2019-04-07T23:31:56.027Z,253.77
2019-04-07T23:34:25.621Z,253.83
2019-04-07T23:36:55.201Z,234.98
2019-04-07T23:39:25.088Z,250.90
2019-04-07T23:41:54.687Z,249.55
2019-04-07T23:44:24.335Z,247.20
2019-04-07T23:46:53.905Z,242.37
2019-04-07T23:49:26.145Z,242.37
2019-04-07T23:51:55.718Z,236.18
2019-04-07T23:54:25.312Z,233.45
2019-04-07T23:56:54.895Z,223.15
2019-04-07T23:59:24.920Z,223.45
